sensor_id;sensor_type;location;lat;lon;timestamp;P1;durP1;ratioP1;P2;durP2;ratioP2
38457;SDS011;24239;48.058;10.486;2022-12-10T00:01:33;54.08;;;27.77;;
38457;SDS011;24239;48.058;10.486;2022-12-10T00:03:59;52.33;;;27.10;;
38457;SDS011;24239;48.058;10.486;2022-12-10T00:06:27;47.38;;;27.85;;
38457;SDS011;24239;48.058;10.486;2022-12-10T00:09:01;49.60;;;28.13;;
38457;SDS011;24239;48.058;10.486;2022-12-10T00:11:28;51.35;;;28.10;;
38457;SDS011;24239;48.058;10.486;2022-12-10T00:13:55;51.08;;;26.85;;
38457;SDS011;24239;48.058;10.486;2022-12-10T00:16:22;52.33;;;27.70;;
38457;SDS011;24239;48.058;10.486;2022-12-10T00:18:49;52.28;;;28.02;;
38457;SDS011;24239;48.058;10.486;2022-12-10T00:21:23;48.33;;;26.20;;
38457;SDS011;24239;48.058;10.486;2022-12-10T00:23:54;50.35;;;28.00;;
38457;SDS011;24239;48.058;10.486;2022-12-10T00:26:21;53.13;;;26.88;;
38457;SDS011;24239;48.058;10.486;2022-12-10T00:28:49;51.78;;;29.48;;
38457;SDS011;24239;48.058;10.486;2022-12-10T00:31:17;59.60;;;29.30;;
38457;SDS011;24239;48.058;10.486;2022-12-10T00:33:43;52.95;;;27.67;;
38457;SDS011;24239;48.058;10.486;2022-12-10T00:36:12;51.00;;;28.10;;
38457;SDS011;24239;48.058;10.486;2022-12-10T00:38:38;55.08;;;29.45;;
38457;SDS011;24239;48.058;10.486;2022-12-10T00:41:05;56.20;;;30.17;;
38457;SDS011;24239;48.058;10.486;2022-12-10T00:43:31;55.10;;;30.23;;
38457;SDS011;24239;48.058;10.486;2022-12-10T00:45:57;53.92;;;28.17;;
38457;SDS011;24239;48.058;10.486;2022-12-10T00:48:23;50.28;;;28.40;;
38457;SDS011;24239;48.058;10.486;2022-12-10T00:53:32;51.63;;;28.13;;
38457;SDS011;24239;48.058;10.486;2022-12-10T00:55:59;59.25;;;29.65;;
38457;SDS011;24239;48.058;10.486;2022-12-10T00:58:30;52.40;;;27.63;;
38457;SDS011;24239;48.058;10.486;2022-12-10T01:03:41;61.60;;;30.63;;
38457;SDS011;24239;48.058;10.486;2022-12-10T01:06:09;64.50;;;32.08;;
38457;SDS011;24239;48.058;10.486;2022-12-10T01:08:40;61.05;;;31.65;;
38457;SDS011;24239;48.058;10.486;2022-12-10T01:11:07;67.20;;;33.35;;
38457;SDS011;24239;48.058;10.486;2022-12-10T01:13:34;65.40;;;32.03;;
38457;SDS011;24239;48.058;10.486;2022-12-10T01:16:01;73.47;;;33.33;;
38457;SDS011;24239;48.058;10.486;2022-12-10T01:18:29;67.43;;;32.38;;
38457;SDS011;24239;48.058;10.486;2022-12-10T01:20:55;76.70;;;34.55;;
38457;SDS011;24239;48.058;10.486;2022-12-10T01:23:24;72.15;;;33.22;;
38457;SDS011;24239;48.058;10.486;2022-12-10T01:25:50;72.65;;;34.65;;
38457;SDS011;24239;48.058;10.486;2022-12-10T01:28:16;68.05;;;32.35;;
38457;SDS011;24239;48.058;10.486;2022-12-10T01:30:42;71.15;;;34.28;;
38457;SDS011;24239;48.058;10.486;2022-12-10T01:33:07;79.22;;;36.78;;
38457;SDS011;24239;48.058;10.486;2022-12-10T01:35:37;79.13;;;35.40;;
38457;SDS011;24239;48.058;10.486;2022-12-10T01:38:02;76.60;;;35.58;;
38457;SDS011;24239;48.058;10.486;2022-12-10T01:40:28;72.43;;;34.08;;
38457;SDS011;24239;48.058;10.486;2022-12-10T01:42:55;85.60;;;36.38;;
38457;SDS011;24239;48.058;10.486;2022-12-10T01:45:21;70.78;;;34.83;;
38457;SDS011;24239;48.058;10.486;2022-12-10T01:47:47;80.55;;;36.40;;
38457;SDS011;24239;48.058;10.486;2022-12-10T01:50:13;75.35;;;34.92;;
38457;SDS011;24239;48.058;10.486;2022-12-10T01:52:38;79.03;;;36.08;;
38457;SDS011;24239;48.058;10.486;2022-12-10T01:55:35;77.88;;;35.20;;
38457;SDS011;24239;48.058;10.486;2022-12-10T01:58:03;77.65;;;33.63;;
38457;SDS011;24239;48.058;10.486;2022-12-10T02:00:29;81.78;;;35.10;;
38457;SDS011;24239;48.058;10.486;2022-12-10T02:03:04;77.13;;;36.00;;
38457;SDS011;24239;48.058;10.486;2022-12-10T02:05:53;76.65;;;35.55;;
38457;SDS011;24239;48.058;10.486;2022-12-10T02:08:39;84.82;;;37.10;;
38457;SDS011;24239;48.058;10.486;2022-12-10T02:13:46;81.95;;;35.30;;
38457;SDS011;24239;48.058;10.486;2022-12-10T02:16:41;79.93;;;36.03;;
38457;SDS011;24239;48.058;10.486;2022-12-10T02:21:59;87.25;;;36.67;;
38457;SDS011;24239;48.058;10.486;2022-12-10T02:24:27;84.35;;;37.90;;
38457;SDS011;24239;48.058;10.486;2022-12-10T02:29:49;82.00;;;35.03;;
38457;SDS011;24239;48.058;10.486;2022-12-10T02:32:18;79.32;;;34.42;;
38457;SDS011;24239;48.058;10.486;2022-12-10T02:34:49;76.15;;;34.78;;
38457;SDS011;24239;48.058;10.486;2022-12-10T02:37:31;77.00;;;33.58;;
38457;SDS011;24239;48.058;10.486;2022-12-10T02:40:04;77.20;;;33.83;;
38457;SDS011;24239;48.058;10.486;2022-12-10T02:42:36;70.57;;;33.95;;
38457;SDS011;24239;48.058;10.486;2022-12-10T02:45:04;71.28;;;33.17;;
38457;SDS011;24239;48.058;10.486;2022-12-10T02:47:32;76.82;;;33.90;;
38457;SDS011;24239;48.058;10.486;2022-12-10T02:49:58;81.78;;;36.80;;
38457;SDS011;24239;48.058;10.486;2022-12-10T02:52:25;74.35;;;33.15;;
38457;SDS011;24239;48.058;10.486;2022-12-10T02:54:51;79.60;;;34.45;;
38457;SDS011;24239;48.058;10.486;2022-12-10T03:08:21;80.10;;;35.17;;
38457;SDS011;24239;48.058;10.486;2022-12-10T03:10:55;84.43;;;35.95;;
38457;SDS011;24239;48.058;10.486;2022-12-10T03:15:54;70.75;;;33.92;;
38457;SDS011;24239;48.058;10.486;2022-12-10T03:18:21;74.47;;;34.58;;
38457;SDS011;24239;48.058;10.486;2022-12-10T03:20:50;82.97;;;36.20;;
38457;SDS011;24239;48.058;10.486;2022-12-10T03:23:19;73.55;;;34.95;;
38457;SDS011;24239;48.058;10.486;2022-12-10T03:25:46;83.28;;;35.58;;
38457;SDS011;24239;48.058;10.486;2022-12-10T03:28:14;70.93;;;32.47;;
38457;SDS011;24239;48.058;10.486;2022-12-10T03:30:43;69.63;;;33.53;;
38457;SDS011;24239;48.058;10.486;2022-12-10T03:33:11;81.45;;;35.55;;
38457;SDS011;24239;48.058;10.486;2022-12-10T03:35:38;82.32;;;35.33;;
38457;SDS011;24239;48.058;10.486;2022-12-10T03:38:04;74.72;;;35.30;;
38457;SDS011;24239;48.058;10.486;2022-12-10T03:40:30;77.88;;;35.90;;
38457;SDS011;24239;48.058;10.486;2022-12-10T03:42:59;73.75;;;34.38;;
38457;SDS011;24239;48.058;10.486;2022-12-10T03:45:25;79.05;;;35.17;;
38457;SDS011;24239;48.058;10.486;2022-12-10T03:47:51;80.78;;;34.95;;
38457;SDS011;24239;48.058;10.486;2022-12-10T03:50:19;80.05;;;35.17;;
38457;SDS011;24239;48.058;10.486;2022-12-10T03:52:45;84.22;;;36.08;;
38457;SDS011;24239;48.058;10.486;2022-12-10T03:55:11;91.97;;;38.22;;
38457;SDS011;24239;48.058;10.486;2022-12-10T03:57:37;89.80;;;36.83;;
38457;SDS011;24239;48.058;10.486;2022-12-10T04:00:05;97.63;;;37.97;;
38457;SDS011;24239;48.058;10.486;2022-12-10T04:02:31;90.88;;;38.13;;
38457;SDS011;24239;48.058;10.486;2022-12-10T04:04:57;88.88;;;37.53;;
38457;SDS011;24239;48.058;10.486;2022-12-10T04:07:23;85.05;;;36.80;;
38457;SDS011;24239;48.058;10.486;2022-12-10T04:09:52;96.90;;;38.28;;
38457;SDS011;24239;48.058;10.486;2022-12-10T04:12:17;75.93;;;33.78;;
38457;SDS011;24239;48.058;10.486;2022-12-10T04:14:43;77.03;;;33.38;;
38457;SDS011;24239;48.058;10.486;2022-12-10T04:17:27;63.10;;;28.80;;
38457;SDS011;24239;48.058;10.486;2022-12-10T04:19:53;55.45;;;24.65;;
38457;SDS011;24239;48.058;10.486;2022-12-10T04:22:19;55.17;;;25.05;;
38457;SDS011;24239;48.058;10.486;2022-12-10T04:25:03;59.25;;;25.75;;
38457;SDS011;24239;48.058;10.486;2022-12-10T04:27:48;50.22;;;23.73;;
38457;SDS011;24239;48.058;10.486;2022-12-10T04:30:17;58.20;;;26.73;;
38457;SDS011;24239;48.058;10.486;2022-12-10T04:32:43;62.50;;;25.63;;
38457;SDS011;24239;48.058;10.486;2022-12-10T04:35:12;57.83;;;25.00;;
38457;SDS011;24239;48.058;10.486;2022-12-10T04:37:38;64.03;;;26.85;;
38457;SDS011;24239;48.058;10.486;2022-12-10T04:40:04;56.67;;;26.10;;
38457;SDS011;24239;48.058;10.486;2022-12-10T04:42:31;56.08;;;25.50;;
38457;SDS011;24239;48.058;10.486;2022-12-10T04:44:56;64.00;;;24.63;;
38457;SDS011;24239;48.058;10.486;2022-12-10T04:47:27;54.70;;;24.73;;
38457;SDS011;24239;48.058;10.486;2022-12-10T04:49:53;58.38;;;26.00;;
38457;SDS011;24239;48.058;10.486;2022-12-10T04:52:19;67.25;;;26.70;;
38457;SDS011;24239;48.058;10.486;2022-12-10T04:54:44;65.88;;;27.30;;
38457;SDS011;24239;48.058;10.486;2022-12-10T04:57:10;63.97;;;26.40;;
38457;SDS011;24239;48.058;10.486;2022-12-10T04:59:36;62.55;;;26.10;;
38457;SDS011;24239;48.058;10.486;2022-12-10T05:02:03;61.78;;;26.23;;
38457;SDS011;24239;48.058;10.486;2022-12-10T05:04:29;62.15;;;25.30;;
38457;SDS011;24239;48.058;10.486;2022-12-10T05:06:55;62.55;;;26.88;;
38457;SDS011;24239;48.058;10.486;2022-12-10T05:09:21;62.63;;;25.65;;
38457;SDS011;24239;48.058;10.486;2022-12-10T05:11:50;57.50;;;25.17;;
38457;SDS011;24239;48.058;10.486;2022-12-10T05:14:16;63.13;;;26.58;;
38457;SDS011;24239;48.058;10.486;2022-12-10T05:16:42;58.97;;;24.58;;
38457;SDS011;24239;48.058;10.486;2022-12-10T05:19:08;58.85;;;26.65;;
38457;SDS011;24239;48.058;10.486;2022-12-10T05:21:34;63.85;;;26.60;;
38457;SDS011;24239;48.058;10.486;2022-12-10T05:24:19;54.78;;;25.00;;
38457;SDS011;24239;48.058;10.486;2022-12-10T05:26:45;66.07;;;26.90;;
38457;SDS011;24239;48.058;10.486;2022-12-10T05:29:12;68.55;;;27.85;;
38457;SDS011;24239;48.058;10.486;2022-12-10T05:31:38;64.13;;;27.08;;
38457;SDS011;24239;48.058;10.486;2022-12-10T05:34:08;70.22;;;28.70;;
38457;SDS011;24239;48.058;10.486;2022-12-10T05:36:35;73.85;;;29.70;;
38457;SDS011;24239;48.058;10.486;2022-12-10T05:39:02;64.05;;;28.10;;
38457;SDS011;24239;48.058;10.486;2022-12-10T05:41:29;71.22;;;28.85;;
38457;SDS011;24239;48.058;10.486;2022-12-10T05:43:57;75.28;;;28.55;;
38457;SDS011;24239;48.058;10.486;2022-12-10T05:46:25;72.65;;;30.67;;
38457;SDS011;24239;48.058;10.486;2022-12-10T05:48:52;72.28;;;30.70;;
38457;SDS011;24239;48.058;10.486;2022-12-10T05:51:19;66.22;;;27.42;;
38457;SDS011;24239;48.058;10.486;2022-12-10T05:53:47;67.45;;;28.60;;
38457;SDS011;24239;48.058;10.486;2022-12-10T05:56:14;64.22;;;28.05;;
38457;SDS011;24239;48.058;10.486;2022-12-10T05:58:43;69.28;;;28.33;;
38457;SDS011;24239;48.058;10.486;2022-12-10T06:01:14;74.25;;;28.10;;
38457;SDS011;24239;48.058;10.486;2022-12-10T06:03:42;73.30;;;28.65;;
38457;SDS011;24239;48.058;10.486;2022-12-10T06:06:08;73.32;;;29.13;;
38457;SDS011;24239;48.058;10.486;2022-12-10T06:08:35;77.78;;;29.60;;
38457;SDS011;24239;48.058;10.486;2022-12-10T06:11:05;86.30;;;30.55;;
38457;SDS011;24239;48.058;10.486;2022-12-10T06:15:58;88.22;;;31.52;;
38457;SDS011;24239;48.058;10.486;2022-12-10T06:18:25;84.50;;;31.70;;
38457;SDS011;24239;48.058;10.486;2022-12-10T06:20:50;94.53;;;33.72;;
38457;SDS011;24239;48.058;10.486;2022-12-10T06:23:19;93.10;;;32.92;;
38457;SDS011;24239;48.058;10.486;2022-12-10T06:25:45;87.72;;;31.20;;
38457;SDS011;24239;48.058;10.486;2022-12-10T06:28:11;88.40;;;31.60;;
38457;SDS011;24239;48.058;10.486;2022-12-10T06:30:37;87.97;;;33.53;;
38457;SDS011;24239;48.058;10.486;2022-12-10T06:33:02;91.45;;;34.47;;
38457;SDS011;24239;48.058;10.486;2022-12-10T06:35:28;93.68;;;32.65;;
38457;SDS011;24239;48.058;10.486;2022-12-10T06:37:55;96.95;;;35.55;;
38457;SDS011;24239;48.058;10.486;2022-12-10T06:40:21;89.78;;;33.33;;
38457;SDS011;24239;48.058;10.486;2022-12-10T06:42:47;90.63;;;35.63;;
38457;SDS011;24239;48.058;10.486;2022-12-10T06:45:15;105.35;;;39.95;;
38457;SDS011;24239;48.058;10.486;2022-12-10T06:47:41;104.63;;;40.40;;
38457;SDS011;24239;48.058;10.486;2022-12-10T06:50:07;102.68;;;39.67;;
38457;SDS011;24239;48.058;10.486;2022-12-10T06:52:33;97.50;;;36.60;;
38457;SDS011;24239;48.058;10.486;2022-12-10T06:54:58;106.93;;;39.65;;
38457;SDS011;24239;48.058;10.486;2022-12-10T06:57:24;99.30;;;36.78;;
38457;SDS011;24239;48.058;10.486;2022-12-10T06:59:50;96.82;;;40.17;;
38457;SDS011;24239;48.058;10.486;2022-12-10T07:02:16;102.82;;;37.83;;
38457;SDS011;24239;48.058;10.486;2022-12-10T07:04:42;99.90;;;38.08;;
38457;SDS011;24239;48.058;10.486;2022-12-10T07:07:07;96.65;;;35.97;;
38457;SDS011;24239;48.058;10.486;2022-12-10T07:09:33;99.88;;;37.72;;
38457;SDS011;24239;48.058;10.486;2022-12-10T07:12:00;93.90;;;39.17;;
38457;SDS011;24239;48.058;10.486;2022-12-10T07:14:26;111.78;;;39.72;;
38457;SDS011;24239;48.058;10.486;2022-12-10T07:16:53;108.47;;;41.13;;
38457;SDS011;24239;48.058;10.486;2022-12-10T07:19:19;100.95;;;38.90;;
38457;SDS011;24239;48.058;10.486;2022-12-10T07:21:45;106.20;;;39.00;;
38457;SDS011;24239;48.058;10.486;2022-12-10T07:24:15;100.38;;;41.42;;
38457;SDS011;24239;48.058;10.486;2022-12-10T07:26:43;96.90;;;42.65;;
38457;SDS011;24239;48.058;10.486;2022-12-10T07:29:18;123.28;;;57.45;;
38457;SDS011;24239;48.058;10.486;2022-12-10T07:31:46;100.55;;;44.33;;
38457;SDS011;24239;48.058;10.486;2022-12-10T07:34:13;112.13;;;44.13;;
38457;SDS011;24239;48.058;10.486;2022-12-10T07:36:40;110.22;;;46.40;;
38457;SDS011;24239;48.058;10.486;2022-12-10T07:39:07;104.45;;;41.42;;
38457;SDS011;24239;48.058;10.486;2022-12-10T07:41:35;106.97;;;45.40;;
38457;SDS011;24239;48.058;10.486;2022-12-10T07:44:04;105.32;;;46.70;;
38457;SDS011;24239;48.058;10.486;2022-12-10T07:46:34;93.10;;;41.90;;
38457;SDS011;24239;48.058;10.486;2022-12-10T07:49:01;100.40;;;43.03;;
38457;SDS011;24239;48.058;10.486;2022-12-10T07:51:27;102.20;;;41.95;;
38457;SDS011;24239;48.058;10.486;2022-12-10T07:53:54;96.70;;;42.72;;
38457;SDS011;24239;48.058;10.486;2022-12-10T07:56:21;95.15;;;45.33;;
38457;SDS011;24239;48.058;10.486;2022-12-10T07:58:47;100.75;;;44.75;;
38457;SDS011;24239;48.058;10.486;2022-12-10T08:01:15;92.32;;;42.50;;
38457;SDS011;24239;48.058;10.486;2022-12-10T08:03:42;91.50;;;40.88;;
38457;SDS011;24239;48.058;10.486;2022-12-10T08:06:12;112.97;;;54.75;;
38457;SDS011;24239;48.058;10.486;2022-12-10T08:08:40;96.57;;;44.83;;
38457;SDS011;24239;48.058;10.486;2022-12-10T08:11:06;97.95;;;54.28;;
38457;SDS011;24239;48.058;10.486;2022-12-10T08:13:36;93.82;;;46.50;;
38457;SDS011;24239;48.058;10.486;2022-12-10T08:18:30;84.85;;;38.97;;
38457;SDS011;24239;48.058;10.486;2022-12-10T08:20:56;83.97;;;38.17;;
38457;SDS011;24239;48.058;10.486;2022-12-10T08:23:22;86.65;;;39.03;;
38457;SDS011;24239;48.058;10.486;2022-12-10T08:25:48;89.75;;;43.85;;
38457;SDS011;24239;48.058;10.486;2022-12-10T08:28:14;94.63;;;43.80;;
38457;SDS011;24239;48.058;10.486;2022-12-10T08:30:45;114.22;;;48.38;;
38457;SDS011;24239;48.058;10.486;2022-12-10T08:33:14;109.70;;;48.83;;
38457;SDS011;24239;48.058;10.486;2022-12-10T08:35:40;95.45;;;42.45;;
38457;SDS011;24239;48.058;10.486;2022-12-10T08:38:06;82.57;;;37.10;;
38457;SDS011;24239;48.058;10.486;2022-12-10T08:40:32;87.32;;;38.78;;
38457;SDS011;24239;48.058;10.486;2022-12-10T08:42:58;84.85;;;37.65;;
38457;SDS011;24239;48.058;10.486;2022-12-10T08:45:24;90.80;;;41.45;;
38457;SDS011;24239;48.058;10.486;2022-12-10T08:47:49;88.47;;;40.22;;
38457;SDS011;24239;48.058;10.486;2022-12-10T08:50:15;89.53;;;40.22;;
38457;SDS011;24239;48.058;10.486;2022-12-10T08:52:41;81.78;;;38.35;;
38457;SDS011;24239;48.058;10.486;2022-12-10T08:55:07;85.32;;;38.63;;
38457;SDS011;24239;48.058;10.486;2022-12-10T08:57:33;73.85;;;36.53;;
38457;SDS011;24239;48.058;10.486;2022-12-10T08:59:59;83.55;;;37.67;;
38457;SDS011;24239;48.058;10.486;2022-12-10T09:02:25;76.03;;;38.35;;
38457;SDS011;24239;48.058;10.486;2022-12-10T09:04:51;73.70;;;35.50;;
38457;SDS011;24239;48.058;10.486;2022-12-10T09:07:18;69.90;;;36.67;;
38457;SDS011;24239;48.058;10.486;2022-12-10T09:09:43;68.80;;;34.53;;
38457;SDS011;24239;48.058;10.486;2022-12-10T09:12:09;66.50;;;33.95;;
38457;SDS011;24239;48.058;10.486;2022-12-10T09:14:35;65.72;;;34.22;;
38457;SDS011;24239;48.058;10.486;2022-12-10T09:17:03;61.88;;;32.85;;
38457;SDS011;24239;48.058;10.486;2022-12-10T09:19:30;66.47;;;34.35;;
38457;SDS011;24239;48.058;10.486;2022-12-10T09:21:55;63.50;;;35.63;;
38457;SDS011;24239;48.058;10.486;2022-12-10T09:24:21;68.03;;;35.78;;
38457;SDS011;24239;48.058;10.486;2022-12-10T09:26:47;64.75;;;34.75;;
38457;SDS011;24239;48.058;10.486;2022-12-10T09:29:13;61.22;;;32.95;;
38457;SDS011;24239;48.058;10.486;2022-12-10T09:31:38;63.45;;;34.95;;
38457;SDS011;24239;48.058;10.486;2022-12-10T09:34:04;65.78;;;35.92;;
38457;SDS011;24239;48.058;10.486;2022-12-10T09:36:30;70.38;;;36.05;;
38457;SDS011;24239;48.058;10.486;2022-12-10T09:38:56;66.07;;;35.00;;
38457;SDS011;24239;48.058;10.486;2022-12-10T09:51:38;66.30;;;34.78;;
38457;SDS011;24239;48.058;10.486;2022-12-10T09:54:05;68.55;;;36.33;;
38457;SDS011;24239;48.058;10.486;2022-12-10T09:56:40;70.50;;;35.65;;
38457;SDS011;24239;48.058;10.486;2022-12-10T09:59:43;68.88;;;37.00;;
38457;SDS011;24239;48.058;10.486;2022-12-10T10:04:43;69.22;;;35.20;;
38457;SDS011;24239;48.058;10.486;2022-12-10T10:07:11;68.75;;;34.80;;
38457;SDS011;24239;48.058;10.486;2022-12-10T10:09:45;72.10;;;35.08;;
38457;SDS011;24239;48.058;10.486;2022-12-10T10:12:14;68.25;;;34.65;;
38457;SDS011;24239;48.058;10.486;2022-12-10T10:14:42;69.32;;;35.95;;
38457;SDS011;24239;48.058;10.486;2022-12-10T10:17:14;66.03;;;34.00;;
38457;SDS011;24239;48.058;10.486;2022-12-10T10:19:45;68.95;;;36.40;;
38457;SDS011;24239;48.058;10.486;2022-12-10T10:22:15;72.85;;;38.05;;
38457;SDS011;24239;48.058;10.486;2022-12-10T10:24:42;63.10;;;34.90;;
38457;SDS011;24239;48.058;10.486;2022-12-10T10:27:17;60.58;;;33.50;;
38457;SDS011;24239;48.058;10.486;2022-12-10T10:29:49;64.00;;;34.53;;
38457;SDS011;24239;48.058;10.486;2022-12-10T10:32:21;65.32;;;34.95;;
38457;SDS011;24239;48.058;10.486;2022-12-10T10:34:47;65.45;;;33.10;;
38457;SDS011;24239;48.058;10.486;2022-12-10T10:39:48;54.95;;;31.15;;
38457;SDS011;24239;48.058;10.486;2022-12-10T10:42:51;56.05;;;29.67;;
38457;SDS011;24239;48.058;10.486;2022-12-10T10:50:36;47.72;;;27.10;;
38457;SDS011;24239;48.058;10.486;2022-12-10T10:55:58;51.85;;;27.38;;
38457;SDS011;24239;48.058;10.486;2022-12-10T10:58:30;48.95;;;26.98;;
38457;SDS011;24239;48.058;10.486;2022-12-10T11:01:00;55.88;;;30.08;;
38457;SDS011;24239;48.058;10.486;2022-12-10T11:03:29;58.53;;;29.98;;
38457;SDS011;24239;48.058;10.486;2022-12-10T11:05:58;54.55;;;29.23;;
38457;SDS011;24239;48.058;10.486;2022-12-10T11:08:29;52.03;;;27.67;;
38457;SDS011;24239;48.058;10.486;2022-12-10T11:11:03;51.75;;;29.75;;
38457;SDS011;24239;48.058;10.486;2022-12-10T11:13:32;49.22;;;27.75;;
38457;SDS011;24239;48.058;10.486;2022-12-10T11:16:20;45.75;;;26.02;;
38457;SDS011;24239;48.058;10.486;2022-12-10T11:18:57;51.42;;;27.40;;
38457;SDS011;24239;48.058;10.486;2022-12-10T11:21:28;44.28;;;25.35;;
38457;SDS011;24239;48.058;10.486;2022-12-10T11:23:57;40.30;;;23.83;;
38457;SDS011;24239;48.058;10.486;2022-12-10T11:37:17;34.90;;;19.45;;
38457;SDS011;24239;48.058;10.486;2022-12-10T11:40:00;37.08;;;20.08;;
38457;SDS011;24239;48.058;10.486;2022-12-10T11:42:50;33.83;;;19.73;;
38457;SDS011;24239;48.058;10.486;2022-12-10T11:56:41;40.22;;;21.60;;
38457;SDS011;24239;48.058;10.486;2022-12-10T11:59:26;41.70;;;24.95;;
38457;SDS011;24239;48.058;10.486;2022-12-10T12:13:08;53.13;;;28.27;;
38457;SDS011;24239;48.058;10.486;2022-12-10T12:15:44;56.28;;;29.00;;
38457;SDS011;24239;48.058;10.486;2022-12-10T12:20:58;51.47;;;27.98;;
38457;SDS011;24239;48.058;10.486;2022-12-10T12:23:32;54.70;;;29.77;;
38457;SDS011;24239;48.058;10.486;2022-12-10T12:26:10;55.90;;;30.15;;
38457;SDS011;24239;48.058;10.486;2022-12-10T12:28:50;52.25;;;29.83;;
38457;SDS011;24239;48.058;10.486;2022-12-10T12:31:19;53.10;;;29.23;;
38457;SDS011;24239;48.058;10.486;2022-12-10T12:36:27;57.65;;;29.13;;
38457;SDS011;24239;48.058;10.486;2022-12-10T12:39:01;60.92;;;31.00;;
38457;SDS011;24239;48.058;10.486;2022-12-10T12:44:23;62.15;;;33.17;;
38457;SDS011;24239;48.058;10.486;2022-12-10T12:46:55;53.53;;;28.80;;
38457;SDS011;24239;48.058;10.486;2022-12-10T12:49:26;59.88;;;31.38;;
38457;SDS011;24239;48.058;10.486;2022-12-10T12:55:00;61.85;;;33.22;;
38457;SDS011;24239;48.058;10.486;2022-12-10T12:57:43;56.08;;;31.88;;
38457;SDS011;24239;48.058;10.486;2022-12-10T13:00:15;53.92;;;31.15;;
38457;SDS011;24239;48.058;10.486;2022-12-10T13:05:29;53.85;;;29.42;;
38457;SDS011;24239;48.058;10.486;2022-12-10T13:13:34;57.67;;;32.08;;
38457;SDS011;24239;48.058;10.486;2022-12-10T13:21:56;50.20;;;29.63;;
38457;SDS011;24239;48.058;10.486;2022-12-10T13:27:53;58.33;;;33.50;;
38457;SDS011;24239;48.058;10.486;2022-12-10T13:32:52;45.90;;;27.15;;
38457;SDS011;24239;48.058;10.486;2022-12-10T13:35:29;46.17;;;27.60;;
38457;SDS011;24239;48.058;10.486;2022-12-10T13:38:02;47.50;;;25.40;;
38457;SDS011;24239;48.058;10.486;2022-12-10T13:40:43;37.38;;;23.33;;
38457;SDS011;24239;48.058;10.486;2022-12-10T13:43:39;44.95;;;24.73;;
38457;SDS011;24239;48.058;10.486;2022-12-10T13:46:32;40.40;;;23.58;;
38457;SDS011;24239;48.058;10.486;2022-12-10T13:49:03;41.15;;;24.35;;
38457;SDS011;24239;48.058;10.486;2022-12-10T13:56:40;36.75;;;22.98;;
38457;SDS011;24239;48.058;10.486;2022-12-10T13:59:16;42.13;;;23.00;;
38457;SDS011;24239;48.058;10.486;2022-12-10T14:01:59;42.20;;;23.88;;
38457;SDS011;24239;48.058;10.486;2022-12-10T14:04:53;44.08;;;22.92;;
38457;SDS011;24239;48.058;10.486;2022-12-10T14:07:35;44.00;;;24.20;;
38457;SDS011;24239;48.058;10.486;2022-12-10T14:10:01;36.90;;;20.60;;
38457;SDS011;24239;48.058;10.486;2022-12-10T14:12:29;42.40;;;22.88;;
38457;SDS011;24239;48.058;10.486;2022-12-10T14:15:01;31.55;;;18.98;;
38457;SDS011;24239;48.058;10.486;2022-12-10T14:17:33;35.30;;;20.60;;
38457;SDS011;24239;48.058;10.486;2022-12-10T14:20:04;46.90;;;25.20;;
38457;SDS011;24239;48.058;10.486;2022-12-10T14:22:34;41.60;;;23.50;;
38457;SDS011;24239;48.058;10.486;2022-12-10T14:25:04;41.95;;;23.60;;
38457;SDS011;24239;48.058;10.486;2022-12-10T14:27:36;52.65;;;27.25;;
38457;SDS011;24239;48.058;10.486;2022-12-10T14:30:06;45.33;;;26.40;;
38457;SDS011;24239;48.058;10.486;2022-12-10T14:32:40;53.40;;;28.42;;
38457;SDS011;24239;48.058;10.486;2022-12-10T14:35:16;43.08;;;24.30;;
38457;SDS011;24239;48.058;10.486;2022-12-10T14:37:47;38.25;;;23.02;;
38457;SDS011;24239;48.058;10.486;2022-12-10T14:40:35;46.58;;;25.13;;
38457;SDS011;24239;48.058;10.486;2022-12-10T14:43:05;46.28;;;24.17;;
38457;SDS011;24239;48.058;10.486;2022-12-10T14:45:42;46.28;;;24.35;;
38457;SDS011;24239;48.058;10.486;2022-12-10T14:48:16;45.58;;;25.60;;
38457;SDS011;24239;48.058;10.486;2022-12-10T14:50:42;43.22;;;24.20;;
38457;SDS011;24239;48.058;10.486;2022-12-10T14:58:34;45.10;;;25.55;;
38457;SDS011;24239;48.058;10.486;2022-12-10T15:01:15;45.08;;;24.10;;
38457;SDS011;24239;48.058;10.486;2022-12-10T15:03:48;46.80;;;24.67;;
38457;SDS011;24239;48.058;10.486;2022-12-10T15:06:15;47.28;;;26.02;;
38457;SDS011;24239;48.058;10.486;2022-12-10T15:08:43;48.78;;;25.50;;
38457;SDS011;24239;48.058;10.486;2022-12-10T15:11:14;43.22;;;24.40;;
38457;SDS011;24239;48.058;10.486;2022-12-10T15:13:49;43.20;;;24.73;;
38457;SDS011;24239;48.058;10.486;2022-12-10T15:16:19;40.47;;;24.13;;
38457;SDS011;24239;48.058;10.486;2022-12-10T15:18:54;43.75;;;24.98;;
38457;SDS011;24239;48.058;10.486;2022-12-10T15:21:23;37.58;;;22.02;;
38457;SDS011;24239;48.058;10.486;2022-12-10T15:23:50;40.85;;;23.50;;
38457;SDS011;24239;48.058;10.486;2022-12-10T15:26:38;43.03;;;24.80;;
38457;SDS011;24239;48.058;10.486;2022-12-10T15:29:15;38.08;;;22.60;;
38457;SDS011;24239;48.058;10.486;2022-12-10T15:31:47;41.55;;;22.90;;
38457;SDS011;24239;48.058;10.486;2022-12-10T15:34:14;41.22;;;22.52;;
38457;SDS011;24239;48.058;10.486;2022-12-10T15:36:47;40.75;;;22.08;;
38457;SDS011;24239;48.058;10.486;2022-12-10T15:39:35;34.05;;;20.40;;
38457;SDS011;24239;48.058;10.486;2022-12-10T15:42:08;31.60;;;18.65;;
38457;SDS011;24239;48.058;10.486;2022-12-10T15:44:38;29.00;;;17.13;;
38457;SDS011;24239;48.058;10.486;2022-12-10T15:49:45;31.73;;;16.95;;
38457;SDS011;24239;48.058;10.486;2022-12-10T15:52:12;28.42;;;17.23;;
38457;SDS011;24239;48.058;10.486;2022-12-10T15:54:40;29.67;;;17.67;;
38457;SDS011;24239;48.058;10.486;2022-12-10T15:57:15;31.00;;;18.52;;
38457;SDS011;24239;48.058;10.486;2022-12-10T15:59:52;30.67;;;19.05;;
38457;SDS011;24239;48.058;10.486;2022-12-10T16:04:57;31.73;;;17.95;;
38457;SDS011;24239;48.058;10.486;2022-12-10T16:07:42;32.45;;;18.58;;
38457;SDS011;24239;48.058;10.486;2022-12-10T16:10:12;36.83;;;19.25;;
38457;SDS011;24239;48.058;10.486;2022-12-10T16:12:39;33.70;;;20.35;;
38457;SDS011;24239;48.058;10.486;2022-12-10T16:15:07;34.85;;;21.35;;
38457;SDS011;24239;48.058;10.486;2022-12-10T16:17:40;33.63;;;19.58;;
38457;SDS011;24239;48.058;10.486;2022-12-10T16:20:20;31.10;;;20.17;;
38457;SDS011;24239;48.058;10.486;2022-12-10T16:22:50;32.47;;;18.90;;
38457;SDS011;24239;48.058;10.486;2022-12-10T16:25:16;28.25;;;18.38;;
38457;SDS011;24239;48.058;10.486;2022-12-10T16:27:42;30.55;;;18.55;;
38457;SDS011;24239;48.058;10.486;2022-12-10T16:30:20;34.25;;;19.52;;
38457;SDS011;24239;48.058;10.486;2022-12-10T16:32:55;34.50;;;19.33;;
38457;SDS011;24239;48.058;10.486;2022-12-10T16:35:27;29.48;;;17.27;;
38457;SDS011;24239;48.058;10.486;2022-12-10T16:37:53;32.33;;;17.98;;
38457;SDS011;24239;48.058;10.486;2022-12-10T16:40:23;32.92;;;19.52;;